Archival Weather

Snohomish County (Paine Fld)

Everett, Washington (KPAE)

Report from: Friday, November 17, 2023 1:53 AM PST
Current time: Monday, June 24, 2024 2:01 AM PDT

Current weather – Weather history – Daily summaries
Weather forecast

Temperature1.1°C (34.0°F)
Dew point-1.1°C (30.0°F)
Winds Calm
Visibility10 mi. (16.1 km)
Clouds Sky clear
Altimeter30.12 in.Hg (1020 mB)
Relative humidity85 %
Density altitude-1,845 ft. (-563 m)
Sea-level pressure102.0 kPa (1020 mB, 30.13 in.Hg)
Remarks Fully automated report
Automated weather observing station with precipitation discriminator
Flight conditions Visual Meteorological Conditions
Raw dataKPAE 170953Z AUTO 00000KT 10SM CLR 01/M01 A3012 RMK AO2 SLP202 T00111011
An error has occurred. This application may no longer respond until reloaded. Reload 🗙